sensor_id;sensor_type;location;lat;lon;timestamp;pressure;altitude;pressure_sealevel;temperature;humidity
6028;BME280;3042;43.194;27.646;2023-02-26T00:01:11;100500.19;;;21.19;100.00
6028;BME280;3042;43.194;27.646;2023-02-26T00:03:39;100558.06;;;20.79;100.00
6028;BME280;3042;43.194;27.646;2023-02-26T00:06:07;100569.41;;;20.52;100.00
6028;BME280;3042;43.194;27.646;2023-02-26T00:08:35;100544.03;;;20.96;100.00
6028;BME280;3042;43.194;27.646;2023-02-26T00:11:05;100544.84;;;21.21;100.00
6028;BME280;3042;43.194;27.646;2023-02-26T00:13:34;100544.84;;;21.27;100.00
6028;BME280;3042;43.194;27.646;2023-02-26T00:16:02;100551.00;;;21.21;100.00
6028;BME280;3042;43.194;27.646;2023-02-26T00:18:29;100544.81;;;21.44;100.00
6028;BME280;3042;43.194;27.646;2023-02-26T00:20:57;100516.84;;;21.15;100.00
6028;BME280;3042;43.194;27.646;2023-02-26T00:23:24;100551.75;;;21.65;100.00
6028;BME280;3042;43.194;27.646;2023-02-26T00:25:53;100555.22;;;21.73;100.00
6028;BME280;3042;43.194;27.646;2023-02-26T00:28:20;100558.72;;;21.72;100.00
6028;BME280;3042;43.194;27.646;2023-02-26T00:30:47;100556.09;;;21.72;100.00
6028;BME280;3042;43.194;27.646;2023-02-26T00:33:15;100549.03;;;21.82;100.00
6028;BME280;3042;43.194;27.646;2023-02-26T00:35:42;100530.56;;;21.91;100.00
6028;BME280;3042;43.194;27.646;2023-02-26T00:38:11;100533.16;;;22.03;100.00
6028;BME280;3042;43.194;27.646;2023-02-26T00:40:44;100522.59;;;22.06;100.00
6028;BME280;3042;43.194;27.646;2023-02-26T00:43:16;100517.34;;;22.03;100.00
6028;BME280;3042;43.194;27.646;2023-02-26T00:45:46;100271.09;;;20.36;100.00
6028;BME280;3042;43.194;27.646;2023-02-26T00:48:39;100512.06;;;22.06;100.00
6028;BME280;3042;43.194;27.646;2023-02-26T00:51:18;100525.28;;;21.96;100.00
6028;BME280;3042;43.194;27.646;2023-02-26T00:53:51;100513.00;;;21.98;100.00
6028;BME280;3042;43.194;27.646;2023-02-26T00:56:23;100521.84;;;21.83;100.00
6028;BME280;3042;43.194;27.646;2023-02-26T00:58:51;100524.44;;;21.92;100.00
6028;BME280;3042;43.194;27.646;2023-02-26T01:01:18;100537.59;;;21.92;100.00
6028;BME280;3042;43.194;27.646;2023-02-26T01:03:45;100520.03;;;21.92;100.00
6028;BME280;3042;43.194;27.646;2023-02-26T01:06:14;100533.28;;;21.79;100.00
6028;BME280;3042;43.194;27.646;2023-02-26T01:08:48;100522.69;;;21.89;100.00
6028;BME280;3042;43.194;27.646;2023-02-26T01:11:17;100524.56;;;21.64;100.00
6028;BME280;3042;43.194;27.646;2023-02-26T01:13:44;100529.78;;;21.74;100.00
6028;BME280;3042;43.194;27.646;2023-02-26T01:16:19;100512.16;;;21.92;100.00
6028;BME280;3042;43.194;27.646;2023-02-26T01:18:51;100504.22;;;21.97;100.00
6028;BME280;3042;43.194;27.646;2023-02-26T01:21:23;100346.13;;;21.00;100.00
6028;BME280;3042;43.194;27.646;2023-02-26T01:23:52;100501.84;;;21.54;100.00
6028;BME280;3042;43.194;27.646;2023-02-26T01:26:22;100531.44;;;21.93;100.00
6028;BME280;3042;43.194;27.646;2023-02-26T01:28:51;100526.19;;;21.90;100.00
6028;BME280;3042;43.194;27.646;2023-02-26T01:31:29;100515.59;;;22.02;100.00
6028;BME280;3042;43.194;27.646;2023-02-26T01:34:02;100516.53;;;21.89;100.00
6028;BME280;3042;43.194;27.646;2023-02-26T01:36:35;100522.66;;;21.97;100.00
6028;BME280;3042;43.194;27.646;2023-02-26T01:39:07;100526.19;;;21.90;100.00
6028;BME280;3042;43.194;27.646;2023-02-26T01:41:42;100525.28;;;21.99;100.00
6028;BME280;3042;43.194;27.646;2023-02-26T01:44:18;100513.81;;;22.10;100.00
6028;BME280;3042;43.194;27.646;2023-02-26T01:47:05;100421.19;;;21.56;100.00
6028;BME280;3042;43.194;27.646;2023-02-26T01:49:37;100522.59;;;22.06;100.00
6028;BME280;3042;43.194;27.646;2023-02-26T01:52:05;100440.50;;;21.52;100.00
6028;BME280;3042;43.194;27.646;2023-02-26T01:54:34;100513.97;;;21.83;100.00
6028;BME280;3042;43.194;27.646;2023-02-26T01:57:05;100547.22;;;21.96;100.00
6028;BME280;3042;43.194;27.646;2023-02-26T01:59:36;100484.13;;;21.87;100.00
6028;BME280;3042;43.194;27.646;2023-02-26T02:02:06;100528.75;;;22.04;100.00
6028;BME280;3042;43.194;27.646;2023-02-26T02:04:34;100561.44;;;21.52;100.00
6028;BME280;3042;43.194;27.646;2023-02-26T02:07:03;100566.78;;;21.12;100.00
6028;BME280;3042;43.194;27.646;2023-02-26T02:09:31;100563.28;;;20.85;100.00
6028;BME280;3042;43.194;27.646;2023-02-26T02:12:08;100470.50;;;20.34;100.00
6028;BME280;3042;43.194;27.646;2023-02-26T02:14:45;100578.09;;;20.20;100.00
6028;BME280;3042;43.194;27.646;2023-02-26T02:17:28;100569.38;;;20.51;100.00
6028;BME280;3042;43.194;27.646;2023-02-26T02:20:28;100563.22;;;20.27;100.00
6028;BME280;3042;43.194;27.646;2023-02-26T02:23:10;100517.72;;;20.00;100.00
6028;BME280;3042;43.194;27.646;2023-02-26T02:29:07;100579.91;;;20.86;100.00
6028;BME280;3042;43.194;27.646;2023-02-26T02:31:44;100593.03;;;20.44;100.00
6028;BME280;3042;43.194;27.646;2023-02-26T02:34:18;100567.66;;;20.74;100.00
6028;BME280;3042;43.194;27.646;2023-02-26T02:36:50;100558.00;;;21.24;100.00
6028;BME280;3042;43.194;27.646;2023-02-26T02:39:28;100568.47;;;21.50;100.00
6028;BME280;3042;43.194;27.646;2023-02-26T02:41:59;100566.63;;;21.67;100.00
6028;BME280;3042;43.194;27.646;2023-02-26T02:44:29;100532.63;;;21.11;100.00
6028;BME280;3042;43.194;27.646;2023-02-26T02:47:00;100595.66;;;21.14;100.00
6028;BME280;3042;43.194;27.646;2023-02-26T02:49:30;100600.03;;;21.12;100.00
6028;BME280;3042;43.194;27.646;2023-02-26T02:52:07;100591.28;;;21.02;100.00
6028;BME280;3042;43.194;27.646;2023-02-26T02:54:41;100591.31;;;20.96;100.00
6028;BME280;3042;43.194;27.646;2023-02-26T02:57:12;100587.78;;;21.31;100.00
6028;BME280;3042;43.194;27.646;2023-02-26T02:59:43;100594.75;;;21.35;100.00
6028;BME280;3042;43.194;27.646;2023-02-26T03:02:15;100590.41;;;21.43;100.00
6028;BME280;3042;43.194;27.646;2023-02-26T03:04:44;100564.97;;;21.29;100.00
6028;BME280;3042;43.194;27.646;2023-02-26T03:07:11;100589.53;;;21.42;100.00
6028;BME280;3042;43.194;27.646;2023-02-26T03:09:38;100593.88;;;21.33;100.00
6028;BME280;3042;43.194;27.646;2023-02-26T03:12:05;100602.69;;;21.42;100.00
6028;BME280;3042;43.194;27.646;2023-02-26T03:14:32;100602.63;;;21.30;100.00
6028;BME280;3042;43.194;27.646;2023-02-26T03:17:08;100594.75;;;21.32;100.00
6028;BME280;3042;43.194;27.646;2023-02-26T03:19:47;100529.16;;;20.93;100.00
6028;BME280;3042;43.194;27.646;2023-02-26T03:25:04;100601.81;;;21.17;100.00
6028;BME280;3042;43.194;27.646;2023-02-26T03:27:35;100616.69;;;21.01;100.00
6028;BME280;3042;43.194;27.646;2023-02-26T03:30:08;100600.06;;;20.92;100.00
6028;BME280;3042;43.194;27.646;2023-02-26T03:32:44;100617.56;;;21.20;100.00
6028;BME280;3042;43.194;27.646;2023-02-26T03:35:19;100622.78;;;21.23;100.00
6028;BME280;3042;43.194;27.646;2023-02-26T03:37:49;100631.59;;;20.85;100.00
6028;BME280;3042;43.194;27.646;2023-02-26T03:40:21;100636.84;;;20.89;100.00
6028;BME280;3042;43.194;27.646;2023-02-26T03:42:53;100578.19;;;20.85;100.00
6028;BME280;3042;43.194;27.646;2023-02-26T03:45:25;100595.72;;;20.81;100.00
6028;BME280;3042;43.194;27.646;2023-02-26T03:47:54;100592.19;;;20.75;100.00
6028;BME280;3042;43.194;27.646;2023-02-26T03:50:28;100598.28;;;21.09;100.00
6028;BME280;3042;43.194;27.646;2023-02-26T03:52:58;100626.34;;;21.04;100.00
6028;BME280;3042;43.194;27.646;2023-02-26T03:55:31;100628.97;;;20.89;100.00
6028;BME280;3042;43.194;27.646;2023-02-26T03:58:00;100644.66;;;20.52;100.00
6028;BME280;3042;43.194;27.646;2023-02-26T04:00:28;100643.81;;;20.70;100.00
6028;BME280;3042;43.194;27.646;2023-02-26T04:02:59;100644.69;;;20.58;100.00
6028;BME280;3042;43.194;27.646;2023-02-26T04:05:31;100559.72;;;20.10;100.00
6028;BME280;3042;43.194;27.646;2023-02-26T04:08:01;100610.59;;;20.70;100.00
6028;BME280;3042;43.194;27.646;2023-02-26T04:10:32;100661.38;;;20.94;100.00
6028;BME280;3042;43.194;27.646;2023-02-26T04:13:01;100663.13;;;20.89;100.00
6028;BME280;3042;43.194;27.646;2023-02-26T04:15:28;100670.09;;;20.65;100.00
6028;BME280;3042;43.194;27.646;2023-02-26T04:17:55;100640.31;;;20.60;100.00
6028;BME280;3042;43.194;27.646;2023-02-26T04:20:22;100666.63;;;20.84;100.00
6028;BME280;3042;43.194;27.646;2023-02-26T04:22:51;100657.00;;;21.17;100.00
6028;BME280;3042;43.194;27.646;2023-02-26T04:25:18;100673.63;;;20.95;100.00
6028;BME280;3042;43.194;27.646;2023-02-26T04:27:45;100683.25;;;20.91;100.00
6028;BME280;3042;43.194;27.646;2023-02-26T04:30:12;100673.63;;;21.10;100.00
6028;BME280;3042;43.194;27.646;2023-02-26T04:32:39;100657.84;;;21.04;100.00
6028;BME280;3042;43.194;27.646;2023-02-26T04:35:06;100659.59;;;21.57;100.00
6028;BME280;3042;43.194;27.646;2023-02-26T04:37:34;100654.34;;;21.63;100.00
6028;BME280;3042;43.194;27.646;2023-02-26T04:40:02;100656.03;;;21.83;100.00
6028;BME280;3042;43.194;27.646;2023-02-26T04:42:30;100660.44;;;21.71;100.00
6028;BME280;3042;43.194;27.646;2023-02-26T04:44:57;100656.03;;;21.80;100.00
6028;BME280;3042;43.194;27.646;2023-02-26T04:47:24;100661.22;;;21.89;100.00
6028;BME280;3042;43.194;27.646;2023-02-26T04:49:51;100645.44;;;21.89;100.00
6028;BME280;3042;43.194;27.646;2023-02-26T04:52:18;100662.94;;;22.02;100.00
6028;BME280;3042;43.194;27.646;2023-02-26T04:54:45;100666.50;;;21.89;100.00
6028;BME280;3042;43.194;27.646;2023-02-26T04:57:13;100685.78;;;21.91;100.00
6028;BME280;3042;43.194;27.646;2023-02-26T04:59:40;100697.25;;;21.73;100.00
6028;BME280;3042;43.194;27.646;2023-02-26T05:02:07;100692.81;;;21.89;100.00
6028;BME280;3042;43.194;27.646;2023-02-26T05:04:34;100704.28;;;21.71;100.00
6028;BME280;3042;43.194;27.646;2023-02-26T05:07:01;100709.56;;;21.49;100.00
6028;BME280;3042;43.194;27.646;2023-02-26T05:09:28;100714.81;;;21.56;100.00
6028;BME280;3042;43.194;27.646;2023-02-26T05:11:55;100726.19;;;21.56;100.00
6028;BME280;3042;43.194;27.646;2023-02-26T05:14:24;100724.44;;;21.37;100.00
6028;BME280;3042;43.194;27.646;2023-02-26T05:16:50;100739.31;;;21.13;100.00
6028;BME280;3042;43.194;27.646;2023-02-26T05:19:17;100728.81;;;21.24;100.00
6028;BME280;3042;43.194;27.646;2023-02-26T05:21:44;100720.91;;;21.25;100.00
6028;BME280;3042;43.194;27.646;2023-02-26T05:24:13;100659.59;;;21.02;100.00
6028;BME280;3042;43.194;27.646;2023-02-26T05:26:40;100728.84;;;21.44;100.00
6028;BME280;3042;43.194;27.646;2023-02-26T05:29:07;100742.81;;;21.35;100.00
6028;BME280;3042;43.194;27.646;2023-02-26T05:31:36;100739.31;;;21.30;100.00
6028;BME280;3042;43.194;27.646;2023-02-26T05:34:03;100746.34;;;21.22;100.00
6028;BME280;3042;43.194;27.646;2023-02-26T05:36:30;100772.56;;;20.94;100.00
6028;BME280;3042;43.194;27.646;2023-02-26T05:38:57;100769.97;;;21.20;100.00
6028;BME280;3042;43.194;27.646;2023-02-26T05:41:24;100760.41;;;21.45;100.00
6028;BME280;3042;43.194;27.646;2023-02-26T05:43:51;100754.28;;;21.45;100.00
6028;BME280;3042;43.194;27.646;2023-02-26T05:46:18;100586.00;;;20.40;100.00
6028;BME280;3042;43.194;27.646;2023-02-26T05:48:47;100741.97;;;21.68;100.00
6028;BME280;3042;43.194;27.646;2023-02-26T05:51:14;100675.38;;;21.36;100.00
6028;BME280;3042;43.194;27.646;2023-02-26T05:53:40;100733.19;;;21.11;100.00
6028;BME280;3042;43.194;27.646;2023-02-26T05:56:07;100762.09;;;21.11;100.00
6028;BME280;3042;43.194;27.646;2023-02-26T05:58:34;100743.69;;;20.99;100.00
6028;BME280;3042;43.194;27.646;2023-02-26T06:01:02;100765.59;;;21.13;100.00
6028;BME280;3042;43.194;27.646;2023-02-26T06:03:29;100766.50;;;21.21;100.00
6028;BME280;3042;43.194;27.646;2023-02-26T06:05:57;100766.47;;;21.23;100.00
6028;BME280;3042;43.194;27.646;2023-02-26T06:08:24;100776.13;;;21.18;100.00
6028;BME280;3042;43.194;27.646;2023-02-26T06:10:51;100779.63;;;21.27;100.00
6028;BME280;3042;43.194;27.646;2023-02-26T06:13:18;100790.13;;;21.27;100.00
6028;BME280;3042;43.194;27.646;2023-02-26T06:15:48;100786.69;;;21.48;100.00
6028;BME280;3042;43.194;27.646;2023-02-26T06:18:16;100791.06;;;21.45;100.00
6028;BME280;3042;43.194;27.646;2023-02-26T06:20:43;100736.63;;;20.85;100.00
6028;BME280;3042;43.194;27.646;2023-02-26T06:23:12;100792.84;;;21.52;100.00
6028;BME280;3042;43.194;27.646;2023-02-26T06:25:40;100800.66;;;21.32;100.00
6028;BME280;3042;43.194;27.646;2023-02-26T06:28:07;100782.25;;;21.27;100.00
6028;BME280;3042;43.194;27.646;2023-02-26T06:30:34;100813.84;;;21.43;100.00
6028;BME280;3042;43.194;27.646;2023-02-26T06:33:01;100826.94;;;21.34;100.00
6028;BME280;3042;43.194;27.646;2023-02-26T06:35:28;100826.06;;;21.28;100.00
6028;BME280;3042;43.194;27.646;2023-02-26T06:37:55;100826.03;;;21.16;100.00
6028;BME280;3042;43.194;27.646;2023-02-26T06:40:23;100836.59;;;21.28;100.00
6028;BME280;3042;43.194;27.646;2023-02-26T06:42:50;100835.69;;;21.28;100.00
6028;BME280;3042;43.194;27.646;2023-02-26T06:45:17;100818.16;;;21.25;100.00
6028;BME280;3042;43.194;27.646;2023-02-26T06:47:44;100829.56;;;21.21;100.00
6028;BME280;3042;43.194;27.646;2023-02-26T06:50:11;100769.06;;;20.92;100.00
6028;BME280;3042;43.194;27.646;2023-02-26T06:52:38;100829.56;;;21.24;100.00
6028;BME280;3042;43.194;27.646;2023-02-26T06:55:06;100840.09;;;21.21;100.00
6028;BME280;3042;43.194;27.646;2023-02-26T06:57:35;100825.94;;;20.79;100.00
6028;BME280;3042;43.194;27.646;2023-02-26T07:00:03;100822.41;;;20.68;100.00
6028;BME280;3042;43.194;27.646;2023-02-26T07:02:31;100813.69;;;20.87;100.00
6028;BME280;3042;43.194;27.646;2023-02-26T07:04:58;100790.91;;;20.77;100.00
6028;BME280;3042;43.194;27.646;2023-02-26T07:07:25;100798.84;;;21.02;100.00
6028;BME280;3042;43.194;27.646;2023-02-26T07:09:52;100798.00;;;21.06;100.00
6028;BME280;3042;43.194;27.646;2023-02-26T07:12:19;100805.88;;;21.11;100.00
6028;BME280;3042;43.194;27.646;2023-02-26T07:14:47;100813.78;;;21.24;100.00
6028;BME280;3042;43.194;27.646;2023-02-26T07:17:14;100799.78;;;21.19;100.00
6028;BME280;3042;43.194;27.646;2023-02-26T07:19:45;100738.44;;;21.11;100.00
6028;BME280;3042;43.194;27.646;2023-02-26T07:22:12;100710.38;;;20.79;100.00
6028;BME280;3042;43.194;27.646;2023-02-26T07:24:40;100785.81;;;21.45;100.00
6028;BME280;3042;43.194;27.646;2023-02-26T07:27:07;100791.91;;;21.32;100.00
6028;BME280;3042;43.194;27.646;2023-02-26T07:29:34;100798.97;;;21.40;100.00
6028;BME280;3042;43.194;27.646;2023-02-26T07:32:03;100758.63;;;21.78;100.00
6028;BME280;3042;43.194;27.646;2023-02-26T07:34:31;100763.88;;;21.78;100.00
6028;BME280;3042;43.194;27.646;2023-02-26T07:36:58;100785.78;;;21.42;100.00
6028;BME280;3042;43.194;27.646;2023-02-26T07:39:25;100752.47;;;21.22;100.00
6028;BME280;3042;43.194;27.646;2023-02-26T07:41:52;100775.28;;;21.42;100.00
6028;BME280;3042;43.194;27.646;2023-02-26T07:44:19;100770.91;;;21.41;100.00
6028;BME280;3042;43.194;27.646;2023-02-26T07:46:46;100784.00;;;21.15;100.00
6028;BME280;3042;43.194;27.646;2023-02-26T07:49:15;100781.38;;;21.24;100.00
6028;BME280;3042;43.194;27.646;2023-02-26T07:51:43;100770.88;;;21.35;100.00
6028;BME280;3042;43.194;27.646;2023-02-26T07:54:10;100763.91;;;21.46;100.00
6028;BME280;3042;43.194;27.646;2023-02-26T07:56:38;100772.63;;;21.36;100.00
6028;BME280;3042;43.194;27.646;2023-02-26T07:59:07;100743.72;;;21.39;100.00
6028;BME280;3042;43.194;27.646;2023-02-26T08:01:35;100635.97;;;20.82;100.00
6028;BME280;3042;43.194;27.646;2023-02-26T08:04:02;100745.44;;;21.89;100.00
6028;BME280;3042;43.194;27.646;2023-02-26T08:06:30;100745.44;;;21.90;100.00
6028;BME280;3042;43.194;27.646;2023-02-26T08:08:57;100592.19;;;21.10;100.00
6028;BME280;3042;43.194;27.646;2023-02-26T08:11:24;100746.31;;;21.86;100.00
6028;BME280;3042;43.194;27.646;2023-02-26T08:13:51;100747.16;;;22.02;100.00
6028;BME280;3042;43.194;27.646;2023-02-26T08:16:18;100755.06;;;21.93;100.00
6028;BME280;3042;43.194;27.646;2023-02-26T08:18:45;100750.66;;;22.07;100.00
6028;BME280;3042;43.194;27.646;2023-02-26T08:21:12;100732.16;;;22.33;100.00
6028;BME280;3042;43.194;27.646;2023-02-26T08:23:41;100727.88;;;22.08;100.00
6028;BME280;3042;43.194;27.646;2023-02-26T08:26:09;100741.75;;;22.48;100.00
6028;BME280;3042;43.194;27.646;2023-02-26T08:28:36;100743.56;;;22.31;100.00
6028;BME280;3042;43.194;27.646;2023-02-26T08:31:04;100748.81;;;22.36;100.00
6028;BME280;3042;43.194;27.646;2023-02-26T08:33:32;100670.00;;;21.91;100.00
6028;BME280;3042;43.194;27.646;2023-02-26T08:35:59;100748.81;;;22.36;100.00
6028;BME280;3042;43.194;27.646;2023-02-26T08:38:27;100758.53;;;22.27;100.00
6028;BME280;3042;43.194;27.646;2023-02-26T08:40:55;100738.13;;;22.66;100.00
6028;BME280;3042;43.194;27.646;2023-02-26T08:43:22;100731.09;;;22.70;100.00
6028;BME280;3042;43.194;27.646;2023-02-26T08:45:51;100562.69;;;22.48;100.00
6028;BME280;3042;43.194;27.646;2023-02-26T08:48:18;100732.72;;;22.99;100.00
6028;BME280;3042;43.194;27.646;2023-02-26T08:50:46;100737.13;;;22.89;100.00
6028;BME280;3042;43.194;27.646;2023-02-26T08:53:13;100731.81;;;22.96;100.00
6028;BME280;3042;43.194;27.646;2023-02-26T08:55:41;100726.47;;;23.10;100.00
6028;BME280;3042;43.194;27.646;2023-02-26T08:58:10;100726.09;;;23.56;100.00
6028;BME280;3042;43.194;27.646;2023-02-26T09:00:37;100741.31;;;23.25;100.00
6028;BME280;3042;43.194;27.646;2023-02-26T09:03:04;100677.00;;;23.38;100.00
6028;BME280;3042;43.194;27.646;2023-02-26T09:05:31;100718.91;;;23.69;100.00
6028;BME280;3042;43.194;27.646;2023-02-26T09:07:58;100724.28;;;23.62;100.00
6028;BME280;3042;43.194;27.646;2023-02-26T09:10:25;100713.53;;;23.86;100.00
6028;BME280;3042;43.194;27.646;2023-02-26T09:12:52;100649.94;;;23.21;100.00
6028;BME280;3042;43.194;27.646;2023-02-26T09:15:21;100725.81;;;23.86;100.00
6028;BME280;3042;43.194;27.646;2023-02-26T09:17:48;100738.34;;;23.62;100.00
6028;BME280;3042;43.194;27.646;2023-02-26T09:20:16;100702.19;;;23.76;100.00
6028;BME280;3042;43.194;27.646;2023-02-26T09:22:44;100729.06;;;24.12;100.00
6028;BME280;3042;43.194;27.646;2023-02-26T09:25:13;100717.19;;;24.44;100.00
6028;BME280;3042;43.194;27.646;2023-02-26T09:27:40;100726.31;;;24.21;100.00
6028;BME280;3042;43.194;27.646;2023-02-26T09:30:08;100699.97;;;24.15;100.00
6028;BME280;3042;43.194;27.646;2023-02-26T09:32:37;100732.50;;;24.19;100.00
6028;BME280;3042;43.194;27.646;2023-02-26T09:35:05;100729.50;;;24.48;100.00
6028;BME280;3042;43.194;27.646;2023-02-26T09:37:32;100745.88;;;24.05;100.00
6028;BME280;3042;43.194;27.646;2023-02-26T09:39:59;100715.09;;;23.99;100.00
6028;BME280;3042;43.194;27.646;2023-02-26T09:42:49;100715.44;;;24.48;100.00
6028;BME280;3042;43.194;27.646;2023-02-26T09:45:24;100716.16;;;24.59;100.00
6028;BME280;3042;43.194;27.646;2023-02-26T09:47:55;100613.97;;;23.96;100.00
6028;BME280;3042;43.194;27.646;2023-02-26T09:50:37;100638.31;;;24.19;100.00
6028;BME280;3042;43.194;27.646;2023-02-26T09:53:12;100662.81;;;24.31;100.00
6028;BME280;3042;43.194;27.646;2023-02-26T09:55:44;100664.03;;;24.70;100.00
6028;BME280;3042;43.194;27.646;2023-02-26T09:58:18;100676.78;;;24.99;100.00
6028;BME280;3042;43.194;27.646;2023-02-26T10:00:52;100699.28;;;24.68;100.00
6028;BME280;3042;43.194;27.646;2023-02-26T10:03:26;100558.78;;;23.79;100.00
6028;BME280;3042;43.194;27.646;2023-02-26T10:06:12;100653.81;;;24.47;99.86
6028;BME280;3042;43.194;27.646;2023-02-26T10:08:46;100691.34;;;24.69;100.00
6028;BME280;3042;43.194;27.646;2023-02-26T10:11:22;100677.94;;;24.83;99.71
6028;BME280;3042;43.194;27.646;2023-02-26T10:13:54;100672.44;;;24.95;99.22
6028;BME280;3042;43.194;27.646;2023-02-26T10:16:26;100508.88;;;23.59;98.57
6028;BME280;3042;43.194;27.646;2023-02-26T10:18:58;100670.69;;;24.32;99.19
6028;BME280;3042;43.194;27.646;2023-02-26T10:21:31;100685.28;;;24.62;98.81
6028;BME280;3042;43.194;27.646;2023-02-26T10:24:03;100657.03;;;24.02;99.79
6028;BME280;3042;43.194;27.646;2023-02-26T10:26:36;100676.34;;;24.70;98.02
6028;BME280;3042;43.194;27.646;2023-02-26T10:29:14;100662.47;;;25.13;95.65
6028;BME280;3042;43.194;27.646;2023-02-26T10:31:54;100537.44;;;24.56;94.98
6028;BME280;3042;43.194;27.646;2023-02-26T10:34:29;100667.25;;;25.43;94.06
6028;BME280;3042;43.194;27.646;2023-02-26T10:37:02;100637.63;;;24.69;92.19
6028;BME280;3042;43.194;27.646;2023-02-26T10:39:32;100661.47;;;24.64;92.44
6028;BME280;3042;43.194;27.646;2023-02-26T10:42:05;100710.66;;;24.74;92.73
6028;BME280;3042;43.194;27.646;2023-02-26T10:44:42;100631.00;;;24.37;92.23
6028;BME280;3042;43.194;27.646;2023-02-26T10:47:16;100688.41;;;24.89;91.35
6028;BME280;3042;43.194;27.646;2023-02-26T10:49:52;100626.63;;;24.95;89.08
6028;BME280;3042;43.194;27.646;2023-02-26T10:52:23;100603.44;;;24.58;90.01
6028;BME280;3042;43.194;27.646;2023-02-26T10:55:03;100692.06;;;24.79;90.97
6028;BME280;3042;43.194;27.646;2023-02-26T10:57:34;100704.38;;;24.13;92.17
6028;BME280;3042;43.194;27.646;2023-02-26T11:00:06;100718.59;;;24.05;93.19
6028;BME280;3042;43.194;27.646;2023-02-26T11:02:37;100714.66;;;24.36;93.52
6028;BME280;3042;43.194;27.646;2023-02-26T11:05:14;100703.34;;;24.27;93.83
6028;BME280;3042;43.194;27.646;2023-02-26T11:07:42;100709.38;;;24.38;94.24
6028;BME280;3042;43.194;27.646;2023-02-26T11:10:17;100686.13;;;24.64;94.14
6028;BME280;3042;43.194;27.646;2023-02-26T11:12:44;100693.41;;;24.49;94.39
6028;BME280;3042;43.194;27.646;2023-02-26T11:15:13;100701.97;;;24.66;94.33
6028;BME280;3042;43.194;27.646;2023-02-26T11:17:41;100705.56;;;24.60;93.48
6028;BME280;3042;43.194;27.646;2023-02-26T11:20:17;100723.78;;;24.12;94.19
6028;BME280;3042;43.194;27.646;2023-02-26T11:22:46;100726.56;;;23.97;94.56
6028;BME280;3042;43.194;27.646;2023-02-26T11:25:17;100729.69;;;24.33;94.70
6028;BME280;3042;43.194;27.646;2023-02-26T11:27:52;100724.59;;;24.17;95.11
6028;BME280;3042;43.194;27.646;2023-02-26T11:30:20;100704.56;;;24.71;93.94
6028;BME280;3042;43.194;27.646;2023-02-26T11:32:50;100724.22;;;24.48;93.26
6028;BME280;3042;43.194;27.646;2023-02-26T11:35:21;100678.84;;;24.15;94.30
6028;BME280;3042;43.194;27.646;2023-02-26T11:37:52;100710.38;;;24.28;94.70
6028;BME280;3042;43.194;27.646;2023-02-26T11:40:22;100726.94;;;24.42;93.72
6028;BME280;3042;43.194;27.646;2023-02-26T11:42:52;100746.53;;;24.24;94.08
6028;BME280;3042;43.194;27.646;2023-02-26T11:45:21;100747.59;;;24.06;93.14
6028;BME280;3042;43.194;27.646;2023-02-26T11:47:52;100742.97;;;24.27;93.72
6028;BME280;3042;43.194;27.646;2023-02-26T11:50:23;100734.69;;;24.57;93.05
6028;BME280;3042;43.194;27.646;2023-02-26T11:52:54;100646.03;;;23.59;94.07
6028;BME280;3042;43.194;27.646;2023-02-26T11:55:27;100586.88;;;23.00;92.97
6028;BME280;3042;43.194;27.646;2023-02-26T11:57:55;100651.81;;;23.10;94.44
6028;BME280;3042;43.194;27.646;2023-02-26T12:00:29;100735.63;;;23.71;95.09
6028;BME280;3042;43.194;27.646;2023-02-26T12:02:59;100677.78;;;23.50;94.82
6028;BME280;3042;43.194;27.646;2023-02-26T12:05:28;100744.56;;;23.56;94.62
6028;BME280;3042;43.194;27.646;2023-02-26T12:07:56;100604.91;;;22.33;95.86
6028;BME280;3042;43.194;27.646;2023-02-26T12:10:27;100730.38;;;23.68;95.35
6028;BME280;3042;43.194;27.646;2023-02-26T12:13:04;100722.81;;;24.18;95.25
6028;BME280;3042;43.194;27.646;2023-02-26T12:15:40;100724.50;;;24.25;93.81
6028;BME280;3042;43.194;27.646;2023-02-26T12:18:37;100722.66;;;24.32;93.75
6028;BME280;3042;43.194;27.646;2023-02-26T12:21:18;100751.00;;;24.17;94.34
6028;BME280;3042;43.194;27.646;2023-02-26T12:24:12;100738.53;;;24.29;92.74
6028;BME280;3042;43.194;27.646;2023-02-26T12:26:51;100724.91;;;24.62;92.56
6028;BME280;3042;43.194;27.646;2023-02-26T12:29:32;100739.91;;;24.60;92.95
6028;BME280;3042;43.194;27.646;2023-02-26T12:32:29;100736.50;;;24.54;92.35
6028;BME280;3042;43.194;27.646;2023-02-26T12:35:17;100715.44;;;24.49;92.39
6028;BME280;3042;43.194;27.646;2023-02-26T12:38:05;100732.94;;;24.55;92.21
6028;BME280;3042;43.194;27.646;2023-02-26T12:40:44;100759.94;;;24.07;93.30
6028;BME280;3042;43.194;27.646;2023-02-26T12:43:20;100747.09;;;24.52;92.59
6028;BME280;3042;43.194;27.646;2023-02-26T12:45:52;100752.25;;;24.61;91.84
6028;BME280;3042;43.194;27.646;2023-02-26T12:48:39;100741.63;;;24.64;91.57
6028;BME280;3042;43.194;27.646;2023-02-26T12:51:16;100713.59;;;24.51;91.66
6028;BME280;3042;43.194;27.646;2023-02-26T12:54:05;100754.09;;;24.56;91.65
6028;BME280;3042;43.194;27.646;2023-02-26T12:56:48;100746.38;;;24.36;93.96
6028;BME280;3042;43.194;27.646;2023-02-26T12:59:41;100763.50;;;24.01;94.21
6028;BME280;3042;43.194;27.646;2023-02-26T13:05:22;100741.84;;;24.48;94.74
6028;BME280;3042;43.194;27.646;2023-02-26T13:08:14;100724.22;;;24.48;93.50
6028;BME280;3042;43.194;27.646;2023-02-26T13:11:09;100633.50;;;23.83;93.32
6028;BME280;3042;43.194;27.646;2023-02-26T13:13:51;100743.72;;;24.35;93.29
6028;BME280;3042;43.194;27.646;2023-02-26T13:16:33;100740.59;;;24.05;93.37
6028;BME280;3042;43.194;27.646;2023-02-26T13:19:10;100751.19;;;23.97;93.32
6028;BME280;3042;43.194;27.646;2023-02-26T13:21:44;100748.47;;;24.08;91.99